Terminal Aerodrome Forecast
Issued by NWS

Home | Current Version | Previous Version | Graphics & Text | Print | Product List | Glossary On
Versions: 1 2 3 4 5 6 7 8 9 10 11 12 13 14 15 16 17
127
FTUS42 KMHX 232117 AAB
TAFOAJ
TAF AMD
KOAJ 232117Z 2321/2418 VRB05KT P6SM VCSH BKN050
     FM240200 00000KT P6SM SKC
     FM241200 27005KT P6SM SKC
      AMD LTD TO CLD VIS AND WIND=

USA.gov is the U.S. government's official web portal to all federal, state and local government web resources and services.